createdAt,value
2022-10-06T00:01:28.146Z,14.01
2022-10-06T00:05:30.170Z,14.11
2022-10-06T00:09:31.626Z,14.04
2022-10-06T00:13:33.823Z,14.14
2022-10-06T00:17:35.335Z,14.23
2022-10-06T00:21:36.904Z,14.31
2022-10-06T00:25:39.035Z,14.23
2022-10-06T00:29:42.350Z,14.31
2022-10-06T00:33:43.887Z,14.31
2022-10-06T00:37:45.832Z,14.27
2022-10-06T00:41:47.235Z,14.43
2022-10-06T00:45:49.168Z,14.49
2022-10-06T00:49:51.145Z,14.71
2022-10-06T00:53:53.101Z,14.72
2022-10-06T00:57:54.958Z,14.77
2022-10-06T01:02:11.365Z,14.84
2022-10-06T01:06:13.282Z,14.88
2022-10-06T01:10:14.713Z,14.91
2022-10-06T01:14:17.391Z,14.88
2022-10-06T01:18:22.243Z,14.90
2022-10-06T01:22:28.994Z,14.97
2022-10-06T01:26:33.035Z,14.85
2022-10-06T01:30:50.941Z,14.96
2022-10-06T01:34:52.449Z,15.02
2022-10-06T01:38:53.818Z,14.94
2022-10-06T01:42:56.146Z,15.02
2022-10-06T01:46:57.548Z,15.10
2022-10-06T01:50:58.929Z,14.89
2022-10-06T01:55:00.327Z,14.87
2022-10-06T01:59:01.766Z,14.75
2022-10-06T02:03:03.267Z,14.64
2022-10-06T02:07:05.061Z,14.56
2022-10-06T02:11:10.782Z,14.47
2022-10-06T02:15:12.193Z,14.47
2022-10-06T02:19:13.591Z,14.32
2022-10-06T02:23:14.954Z,14.33
2022-10-06T02:27:16.381Z,14.42
2022-10-06T02:31:17.850Z,14.21
2022-10-06T02:35:19.304Z,14.23
2022-10-06T02:39:20.660Z,14.22
2022-10-06T02:43:22.129Z,14.10
2022-10-06T02:47:23.587Z,14.11
2022-10-06T02:51:25.296Z,14.04
2022-10-06T02:55:26.947Z,14.11
2022-10-06T02:59:28.348Z,14.06
2022-10-06T03:03:30.934Z,14.01
2022-10-06T03:07:32.399Z,13.93
2022-10-06T03:11:36.645Z,14.00
2022-10-06T03:15:38.026Z,14.17
2022-10-06T03:19:40.040Z,14.26
2022-10-06T03:23:44.002Z,14.41
2022-10-06T03:27:45.501Z,14.55
2022-10-06T03:31:46.944Z,14.43
2022-10-06T03:35:57.608Z,14.56
2022-10-06T03:39:59.062Z,14.40
2022-10-06T03:44:00.956Z,14.44
2022-10-06T03:48:02.378Z,14.39
2022-10-06T03:52:03.791Z,14.25
2022-10-06T03:56:11.669Z,14.28
2022-10-06T04:00:13.780Z,14.41
2022-10-06T04:04:15.371Z,14.44
2022-10-06T04:08:16.853Z,14.58
2022-10-06T04:12:18.241Z,14.53
2022-10-06T04:16:25.237Z,14.64
2022-10-06T04:20:26.730Z,14.75
2022-10-06T04:24:28.175Z,14.78
2022-10-06T04:28:30.264Z,14.79
2022-10-06T04:32:32.310Z,14.94
2022-10-06T04:36:40.054Z,15.01
2022-10-06T04:40:41.438Z,14.91
2022-10-06T04:44:42.854Z,14.88
2022-10-06T04:48:44.549Z,14.82
2022-10-06T04:52:45.994Z,14.71
2022-10-06T04:56:47.381Z,14.65
2022-10-06T05:00:49.149Z,14.78
2022-10-06T05:04:50.579Z,14.67
2022-10-06T05:08:54.324Z,14.57
2022-10-06T05:12:57.010Z,14.50
2022-10-06T05:16:58.416Z,14.55
2022-10-06T05:21:06.664Z,14.46
2022-10-06T05:25:08.743Z,14.50
2022-10-06T05:29:10.205Z,14.39
2022-10-06T05:33:12.186Z,14.37
2022-10-06T05:37:13.571Z,14.28
2022-10-06T05:41:18.715Z,14.28
2022-10-06T05:45:20.132Z,14.18
2022-10-06T05:49:21.549Z,14.19
2022-10-06T05:53:23.006Z,14.17
2022-10-06T05:57:24.389Z,14.10
2022-10-06T06:01:33.153Z,13.98
2022-10-06T06:05:34.653Z,13.86
2022-10-06T06:09:36.071Z,13.84
2022-10-06T06:13:37.534Z,13.70
2022-10-06T06:17:38.938Z,13.67
2022-10-06T06:21:40.452Z,13.56
2022-10-06T06:25:42.626Z,13.63
2022-10-06T06:29:44.030Z,13.65
2022-10-06T06:33:45.490Z,13.77
2022-10-06T06:37:46.868Z,13.82
2022-10-06T06:41:48.902Z,13.77
2022-10-06T06:45:50.354Z,13.87
2022-10-06T06:49:51.827Z,13.86
2022-10-06T06:53:53.790Z,13.92
2022-10-06T06:57:55.429Z,13.98
2022-10-06T07:01:57.633Z,13.87
2022-10-06T07:06:09.414Z,13.84
2022-10-06T07:10:11.571Z,13.83
2022-10-06T07:14:12.995Z,14.00
2022-10-06T07:18:33.093Z,13.80
2022-10-06T07:22:52.875Z,13.89
2022-10-06T07:26:56.375Z,13.93
2022-10-06T07:31:00.700Z,14.09
2022-10-06T07:35:04.253Z,14.09
2022-10-06T07:39:05.750Z,14.23
2022-10-06T07:43:07.122Z,13.98
2022-10-06T07:47:09.124Z,13.77
2022-10-06T07:51:16.040Z,13.97
2022-10-06T07:55:18.210Z,14.44
2022-10-06T07:59:20.383Z,14.64
2022-10-06T08:03:22.216Z,14.67
2022-10-06T08:07:23.661Z,14.18
2022-10-06T08:11:25.102Z,14.50
2022-10-06T08:15:26.614Z,14.12
2022-10-06T08:19:27.974Z,14.43
2022-10-06T08:23:29.322Z,14.58
2022-10-06T08:27:30.921Z,14.48
2022-10-06T08:31:32.565Z,14.59
2022-10-06T08:35:36.046Z,14.70
2022-10-06T08:39:37.440Z,15.07
2022-10-06T08:43:39.212Z,14.61
2022-10-06T08:47:47.224Z,14.64
2022-10-06T08:52:00.533Z,14.93
2022-10-06T08:56:18.118Z,15.19
2022-10-06T09:00:21.432Z,15.90
2022-10-06T09:04:30.426Z,15.86
2022-10-06T09:08:47.430Z,15.64
2022-10-06T09:13:00.649Z,15.27
2022-10-06T09:17:10.622Z,15.75
2022-10-06T09:21:16.708Z,15.46
2022-10-06T09:25:21.782Z,15.19
2022-10-06T09:29:23.504Z,15.37
2022-10-06T09:33:26.140Z,15.48
2022-10-06T09:37:28.193Z,15.27
2022-10-06T09:41:42.889Z,15.66
2022-10-06T09:45:44.373Z,15.47
2022-10-06T09:50:11.973Z,16.44
2022-10-06T09:54:14.958Z,16.14
2022-10-06T09:58:21.386Z,16.98
2022-10-06T10:02:36.761Z,16.86
2022-10-06T10:06:38.956Z,16.92
2022-10-06T10:10:41.194Z,16.34
2022-10-06T10:14:42.630Z,16.49
2022-10-06T10:18:50.918Z,16.47
2022-10-06T10:22:53.880Z,16.42
2022-10-06T10:27:05.040Z,16.47
2022-10-06T10:31:26.146Z,16.29
2022-10-06T10:35:32.126Z,16.63
2022-10-06T10:39:47.065Z,16.83
2022-10-06T10:43:48.678Z,17.45
2022-10-06T10:47:50.293Z,18.11
2022-10-06T10:52:13.947Z,18.21
2022-10-06T10:56:17.667Z,17.64
2022-10-06T11:00:22.806Z,17.50
2022-10-06T11:04:24.786Z,18.38
2022-10-06T11:08:50.561Z,17.71
2022-10-06T11:13:16.127Z,18.60
2022-10-06T11:17:45.280Z,17.24
2022-10-06T11:22:11.288Z,17.03
2022-10-06T11:26:39.700Z,18.33
2022-10-06T11:30:58.442Z,18.79
2022-10-06T11:34:59.975Z,18.49
2022-10-06T11:39:37.315Z,17.59
2022-10-06T11:43:52.038Z,18.23
2022-10-06T11:47:56.448Z,18.68
2022-10-06T11:52:18.463Z,20.03
2022-10-06T11:56:19.801Z,18.55
2022-10-06T12:00:21.222Z,18.52
2022-10-06T12:04:24.642Z,18.22
2022-10-06T12:08:37.396Z,18.96
2022-10-06T12:12:42.034Z,18.25
2022-10-06T12:21:25.185Z,18.29
2022-10-06T12:25:38.054Z,18.21
2022-10-06T12:29:50.171Z,18.75
2022-10-06T12:33:51.647Z,18.02
2022-10-06T12:37:55.307Z,18.41
2022-10-06T12:42:20.270Z,18.68
2022-10-06T12:46:37.519Z,18.60
2022-10-06T12:50:42.759Z,18.15
2022-10-06T12:55:00.413Z,18.79
2022-10-06T12:59:28.488Z,17.90
2022-10-06T13:03:30.579Z,18.36
2022-10-06T13:07:34.081Z,18.29
2022-10-06T13:11:35.514Z,18.69
2022-10-06T13:15:41.423Z,19.25
2022-10-06T13:19:46.741Z,18.54
2022-10-06T13:23:49.175Z,18.60
2022-10-06T13:27:53.753Z,19.23
2022-10-06T13:31:55.957Z,18.52
2022-10-06T13:35:58.290Z,18.49
2022-10-06T13:40:00.729Z,18.39
2022-10-06T13:44:20.803Z,17.88
2022-10-06T13:48:22.193Z,17.56
2022-10-06T13:52:50.515Z,18.30
2022-10-06T13:56:53.163Z,18.60
2022-10-06T14:01:00.651Z,18.84
2022-10-06T14:05:34.121Z,18.30
2022-10-06T14:09:35.512Z,18.66
2022-10-06T14:13:52.148Z,18.58
2022-10-06T14:18:00.155Z,18.02
2022-10-06T14:22:03.576Z,19.34
2022-10-06T14:26:05.644Z,18.73
2022-10-06T14:30:07.884Z,18.80
2022-10-06T14:34:14.365Z,19.21
2022-10-06T14:38:16.032Z,17.66
2022-10-06T14:42:18.180Z,18.70
2022-10-06T14:46:19.817Z,18.92
2022-10-06T14:50:21.338Z,18.62
2022-10-06T14:54:22.967Z,19.14
2022-10-06T14:58:24.346Z,18.72
2022-10-06T15:02:25.857Z,18.01
2022-10-06T15:06:46.519Z,17.34
2022-10-06T15:10:51.842Z,17.57
2022-10-06T15:14:53.234Z,17.08
2022-10-06T15:18:54.718Z,16.98
2022-10-06T15:22:56.422Z,16.85
2022-10-06T15:27:17.662Z,16.92
2022-10-06T15:31:25.035Z,16.81
2022-10-06T15:35:26.472Z,16.97
2022-10-06T15:39:30.016Z,16.89
2022-10-06T15:43:52.022Z,16.56
2022-10-06T15:47:53.391Z,16.87
2022-10-06T15:52:02.556Z,16.96
2022-10-06T15:56:04.837Z,16.34
2022-10-06T16:00:06.869Z,16.47
2022-10-06T16:04:47.185Z,16.15
2022-10-06T16:08:48.600Z,16.19
2022-10-06T16:12:49.984Z,15.86
2022-10-06T16:16:52.435Z,15.95
2022-10-06T16:20:54.668Z,16.04
2022-10-06T16:24:56.038Z,15.73
2022-10-06T16:28:57.681Z,15.74
2022-10-06T16:32:59.056Z,15.43
2022-10-06T16:37:00.458Z,15.34
2022-10-06T16:41:02.581Z,15.53
2022-10-06T16:45:04.226Z,15.24
2022-10-06T16:49:08.377Z,14.95
2022-10-06T16:53:12.437Z,15.01
2022-10-06T16:57:18.173Z,15.01
2022-10-06T17:01:21.833Z,14.83
2022-10-06T17:05:23.306Z,14.80
2022-10-06T17:09:27.385Z,14.66
2022-10-06T17:13:29.172Z,14.46
2022-10-06T17:17:30.585Z,14.22
2022-10-06T17:21:45.704Z,14.04
2022-10-06T17:25:59.490Z,14.01
2022-10-06T17:30:00.930Z,13.96
2022-10-06T17:34:11.213Z,13.69
2022-10-06T17:38:12.666Z,13.58
2022-10-06T17:42:15.133Z,13.40
2022-10-06T17:46:20.175Z,13.17
2022-10-06T17:50:21.594Z,13.01
2022-10-06T17:54:26.696Z,12.80
2022-10-06T17:58:30.122Z,12.64
2022-10-06T18:02:31.658Z,12.29
2022-10-06T18:06:35.453Z,12.26
2022-10-06T18:10:59.117Z,12.24
2022-10-06T18:15:01.485Z,12.14
2022-10-06T18:19:11.512Z,11.94
2022-10-06T18:23:14.174Z,11.81
2022-10-06T18:27:15.568Z,11.74
2022-10-06T18:31:18.849Z,11.81
2022-10-06T18:39:42.029Z,11.62
2022-10-06T18:43:44.256Z,11.51
2022-10-06T18:48:04.177Z,11.25
2022-10-06T18:52:06.975Z,11.16
2022-10-06T18:56:08.525Z,11.15
2022-10-06T19:00:10.786Z,11.07
2022-10-06T19:04:14.827Z,11.07
2022-10-06T19:08:16.184Z,10.91
2022-10-06T19:12:17.547Z,10.88
2022-10-06T19:16:22.241Z,10.93
2022-10-06T19:20:23.687Z,10.79
2022-10-06T19:24:27.462Z,10.54
2022-10-06T19:28:31.423Z,10.53
2022-10-06T19:32:33.024Z,10.56
2022-10-06T19:36:35.305Z,10.35
2022-10-06T19:40:36.851Z,10.41
2022-10-06T19:44:43.141Z,10.51
2022-10-06T19:48:44.771Z,10.39
2022-10-06T19:52:46.287Z,10.39
2022-10-06T19:56:48.321Z,10.37
2022-10-06T20:00:49.696Z,9.98
2022-10-06T20:04:51.085Z,10.15
2022-10-06T20:08:52.860Z,10.13
2022-10-06T20:12:54.340Z,10.16
2022-10-06T20:16:56.792Z,10.07
2022-10-06T20:20:58.906Z,10.06
2022-10-06T20:25:01.840Z,10.07
2022-10-06T20:29:07.685Z,9.96
2022-10-06T20:33:11.267Z,9.98
2022-10-06T20:37:12.628Z,9.92
2022-10-06T20:41:17.797Z,9.66
2022-10-06T20:45:19.166Z,9.24
2022-10-06T20:49:21.220Z,9.63
2022-10-06T20:53:29.579Z,9.69
2022-10-06T20:57:33.845Z,9.26
2022-10-06T21:01:37.180Z,9.29
2022-10-06T21:05:38.689Z,9.09
2022-10-06T21:09:40.353Z,9.31
2022-10-06T21:13:48.503Z,9.06
2022-10-06T21:17:49.923Z,8.82
2022-10-06T21:21:53.719Z,9.11
2022-10-06T21:25:56.306Z,9.10
2022-10-06T21:29:57.789Z,8.98
2022-10-06T21:34:00.455Z,9.05
2022-10-06T21:38:01.878Z,8.87
2022-10-06T21:42:03.669Z,8.64
2022-10-06T21:46:27.026Z,8.80
2022-10-06T21:50:26.575Z,8.52
2022-10-06T21:54:27.997Z,8.13
2022-10-06T21:58:29.413Z,8.37
2022-10-06T22:02:30.889Z,8.64
2022-10-06T22:06:34.883Z,8.60
2022-10-06T22:10:36.333Z,8.59
2022-10-06T22:14:37.742Z,8.58
2022-10-06T22:18:40.538Z,8.47
2022-10-06T22:22:41.948Z,8.31
2022-10-06T22:26:44.452Z,8.21
2022-10-06T22:30:45.845Z,8.30
2022-10-06T22:34:47.264Z,8.23
2022-10-06T22:38:48.710Z,8.23
2022-10-06T22:42:50.126Z,7.90
2022-10-06T22:46:51.637Z,7.97
2022-10-06T22:50:53.294Z,7.81
2022-10-06T22:54:54.751Z,7.84
2022-10-06T22:58:59.418Z,7.78
2022-10-06T23:03:01.089Z,7.44
2022-10-06T23:07:02.535Z,7.75
2022-10-06T23:11:06.607Z,7.54
2022-10-06T23:15:11.358Z,7.30
2022-10-06T23:19:12.879Z,7.26
2022-10-06T23:23:14.538Z,7.49
2022-10-06T23:27:15.959Z,7.40
2022-10-06T23:31:17.424Z,7.20
2022-10-06T23:35:18.919Z,7.35
2022-10-06T23:39:20.317Z,7.46
2022-10-06T23:43:23.053Z,7.43
2022-10-06T23:47:24.534Z,6.98
2022-10-06T23:51:26.038Z,7.08
2022-10-06T23:55:27.437Z,7.01
2022-10-06T23:59:29.531Z,6.84
